OOCL Long Beach — VRYO4 — position and weather

sailwx.info

Track history (hours):
 
Tides and Currents Weather Stations Pressure Air Temp Water Temp Dewpoint Dewpoint Depression Visibility Wind Speed Wind Dir Waves Ship Positions

OOCL Long Beach

Last reported at 2015-Apr-25 14:19 UTC. Time now 2015-Apr-28 06:49 UTC.
Position N 35°26' E 141°13'.

Length 323 m; beam 42.8 m; draft 14.5 m.

Type: Cargo ship. MMSI: 477316000.

Date/timePositionNaut miles runAvg speedWind from/ knotsBaromVisibWave heightAir tempDewpointWater temp
2015-Apr-25 14:19N 35°26' E 141°13'2020.2
2015-Apr-25 13:21N 35°16' E 140°53'1720.6
2015-Apr-25 12:32N 35°07' E 140°35'2020.3
2015-Apr-25 11:33N 34°57' E 140°14'2119.7
2015-Apr-25 10:29N 34°47' E 139°52'87021.7
2015-Apr-23 18:19N 27°47' E 125°00'40218.5
2015-Apr-22 20:33N 22°53' E 119°57'2019.6
2015-Apr-22 19:33N 22°38' E 120°10'9 9.3
2015-Apr-22 18:33N 22°34' E 120°19'1 0.9
2015-Apr-22 17:33N 22°34' E 120°19'0 0.0
2015-Apr-22 16:33N 22°34' E 120°19'0 0.0
2015-Apr-22 15:33N 22°34' E 120°19'0 0.0
2015-Apr-22 14:33N 22°34' E 120°19'0 0.0
2015-Apr-22 13:21N 22°34' E 120°19'0 0.0
2015-Apr-22 12:27N 22°34' E 120°19'0 0.0
2015-Apr-22 11:33N 22°34' E 120°19'0 0.1
2015-Apr-22 10:33N 22°34' E 120°19'0 0.0
2015-Apr-22 08:33N 22°34' E 120°19'0 0.0
2015-Apr-22 07:27N 22°34' E 120°19'0 0.1
2015-Apr-22 06:27N 22°34' E 120°19'0 0.1
2015-Apr-22 05:27N 22°34' E 120°19'1 1.3
2015-Apr-22 04:33N 22°33' E 120°19'8 8.4
2015-Apr-22 03:33N 22°31' E 120°10'1817.3
2015-Apr-22 02:32N 22°29' E 119°51'28518.6
2015-Apr-21 11:15N 22°16' E 114°44'1419.1
2015-Apr-21 10:33N 22°23' E 114°31'17 7.9
2015-Apr-21 08:20N 22°34' E 114°16'0 0.0
2015-Apr-21 05:20N 22°34' E 114°16'0 0.0
2015-Apr-21 01:20N 22°34' E 114°16'0 0.0
2015-Apr-21 00:15N 22°34' E 114°16'0 0.0
2015-Apr-20 23:20N 22°34' E 114°16'0 0.0
2015-Apr-20 22:26N 22°34' E 114°16'0 0.0
2015-Apr-20 21:26N 22°34' E 114°16'0 0.0
2015-Apr-20 20:32N 22°34' E 114°16'0 0.0
2015-Apr-20 19:26N 22°34' E 114°16'0 0.0
2015-Apr-20 15:20N 22°34' E 114°16'0 0.4
2015-Apr-20 14:31N 22°34' E 114°17'18 8.8
2015-Apr-20 12:31N 22°24' E 114°32'1 1.1
2015-Apr-20 11:33N 22°23' E 114°33'1 1.2
2015-Apr-20 10:29N 22°22' E 114°32'1 1.3
2015-Apr-20 09:33N 22°21' E 114°32'1 1.1
2015-Apr-20 08:32N 22°20' E 114°31'3 3.0
2015-Apr-20 07:31N 22°20' E 114°28'1212.3
2015-Apr-20 06:31N 22°09' E 114°22'1211.5
2015-Apr-20 05:30N 22°12' E 114°10'9 9.2
2015-Apr-20 04:33N 22°21' E 114°07'0 0.1
2015-Apr-20 02:12N 22°21' E 114°07'0 0.0
2015-Apr-20 01:30N 22°21' E 114°07'0 0.0
2015-Apr-20 00:27N 22°21' E 114°07'0 0.0
2015-Apr-19 23:24N 22°21' E 114°07'0 0.0
2015-Apr-19 22:18N 22°21' E 114°07'0 0.0
2015-Apr-19 20:30N 22°21' E 114°07'0 0.0
2015-Apr-19 19:12N 22°21' E 114°07'1 0.9
2015-Apr-19 18:34N 22°20' E 114°07'7 6.6
2015-Apr-19 17:26N 22°21' E 113°59'9 9.7
2015-Apr-19 16:33N 22°27' E 113°53'2 0.1
2015-Apr-18 17:05N 22°29' E 113°52'5 9.6
2015-Apr-18 16:33N 22°24' E 113°54'11 8.5
2015-Apr-18 15:18N 22°21' E 114°05'2 3.0
2015-Apr-18 14:33N 22°20' E 114°07'0 0.0
2015-Apr-18 13:32N 22°20' E 114°07'0 0.0
2015-Apr-18 12:32N 22°20' E 114°07'0 0.0
2015-Apr-18 11:32N 22°20' E 114°07'0 0.0
2015-Apr-18 10:32N 22°20' E 114°07'0 0.0
2015-Apr-18 09:32N 22°20' E 114°07'0 0.0
2015-Apr-18 08:32N 22°20' E 114°07'0 0.0
2015-Apr-18 07:32N 22°20' E 114°07'0 0.4
2015-Apr-18 06:33N 22°20' E 114°07'7 7.4
2015-Apr-18 05:33N 22°13' E 114°10'6 5.8
2015-Apr-18 04:33N 22°09' E 114°15'1110.5
2015-Apr-18 03:33N 22°10' E 114°26'1111.4
2015-Apr-18 02:33N 22°11' E 114°38'12012.6
2015-Apr-17 17:05N 22°43' E 116°43'713.4
2015-Apr-17 16:33N 22°48' E 116°48'1513.4
2015-Apr-17 15:24N 22°57' E 117°02'1113.0
2015-Apr-17 14:33N 23°04' E 117°11'2912.2
2015-Apr-17 12:11N 23°22' E 117°35'812.2
2015-Apr-17 11:33N 23°27' E 117°41'1211.8
2015-Apr-17 10:30N 23°37' E 117°50'1212.4
2015-Apr-17 09:30N 23°46' E 117°59'1112.0
2015-Apr-17 08:32N 23°54' E 118°08'1211.9
2015-Apr-17 07:33N 24°02' E 118°17'1110.6
2015-Apr-17 06:34N 24°13' E 118°16'1212.3
2015-Apr-17 05:33N 24°22' E 118°08'8 4.0
2015-Apr-17 03:33N 24°27' E 118°00'0 0.0
2015-Apr-17 01:21N 24°27' E 118°00'0 0.0
2015-Apr-16 23:33N 24°27' E 118°00'0 0.0
2015-Apr-16 22:09N 24°27' E 118°00'0 0.1
2015-Apr-16 21:15N 24°27' E 118°00'0 0.1
2015-Apr-16 20:27N 24°27' E 118°00'0 0.0
2015-Apr-16 17:09N 24°27' E 118°00'0 0.0
2015-Apr-16 15:09N 24°27' E 118°00'0 0.0
2015-Apr-16 14:27N 24°27' E 118°00'6 6.3
2015-Apr-16 13:33N 24°24' E 118°06'1914.0
2015-Apr-16 12:13N 24°12' E 118°21'0 0.2
2015-Apr-16 11:33N 24°12' E 118°21'1 0.9
2015-Apr-16 10:16N 24°12' E 118°22'0 0.0
2015-Apr-16 09:28N 24°13' E 118°22'0 0.1
2015-Apr-16 08:28N 24°12' E 118°22'0 0.0
2015-Apr-16 07:28N 24°12' E 118°22'0 0.1
2015-Apr-16 05:16N 24°12' E 118°21'0 0.0
2015-Apr-16 04:10N 24°12' E 118°21'0 0.1
2015-Apr-16 02:05N 24°12' E 118°22'0 0.0
2015-Apr-16 00:11N 24°13' E 118°22'0 0.0
2015-Apr-15 23:10N 24°12' E 118°22'0 0.1
2015-Apr-15 22:17N 24°12' E 118°22'0 0.0
2015-Apr-15 20:29N 24°12' E 118°22'0 0.0
2015-Apr-15 19:28N 24°12' E 118°22'0 0.0
2015-Apr-15 18:04N 24°12' E 118°22'0 0.0
2015-Apr-15 17:16N 24°12' E 118°22'0 0.1
2015-Apr-15 16:16N 24°12' E 118°22'  
Track history (hours):
 
Tides and Currents Weather Stations Pressure Air Temp Water Temp Dewpoint Dewpoint Depression Visibility Wind Speed Wind Dir Waves Ship Positions

OOCL Long Beach

Last reported at 2015-Apr-25 14:19 UTC. Time now 2015-Apr-28 06:49 UTC.
Position N 35°26' E 141°13'.

Length 323 m; beam 42.8 m; draft 14.5 m.

Type: Cargo ship. MMSI: 477316000.

Date/timePositionNaut miles runAvg speedWind from/ knotsBaromVisibWave heightAir tempDewpointWater temp
2015-Apr-25 14:19N 35°26' E 141°13'2020.2
2015-Apr-25 13:21N 35°16' E 140°53'1720.6
2015-Apr-25 12:32N 35°07' E 140°35'2020.3
2015-Apr-25 11:33N 34°57' E 140°14'2119.7
2015-Apr-25 10:29N 34°47' E 139°52'87021.7
2015-Apr-23 18:19N 27°47' E 125°00'40218.5
2015-Apr-22 20:33N 22°53' E 119°57'2019.6
2015-Apr-22 19:33N 22°38' E 120°10'9 9.3
2015-Apr-22 18:33N 22°34' E 120°19'1 0.9
2015-Apr-22 17:33N 22°34' E 120°19'0 0.0
2015-Apr-22 16:33N 22°34' E 120°19'0 0.0
2015-Apr-22 15:33N 22°34' E 120°19'0 0.0
2015-Apr-22 14:33N 22°34' E 120°19'0 0.0
2015-Apr-22 13:21N 22°34' E 120°19'0 0.0
2015-Apr-22 12:27N 22°34' E 120°19'0 0.0
2015-Apr-22 11:33N 22°34' E 120°19'0 0.1
2015-Apr-22 10:33N 22°34' E 120°19'0 0.0
2015-Apr-22 08:33N 22°34' E 120°19'0 0.0
2015-Apr-22 07:27N 22°34' E 120°19'0 0.1
2015-Apr-22 06:27N 22°34' E 120°19'0 0.1
2015-Apr-22 05:27N 22°34' E 120°19'1 1.3
2015-Apr-22 04:33N 22°33' E 120°19'8 8.4
2015-Apr-22 03:33N 22°31' E 120°10'1817.3
2015-Apr-22 02:32N 22°29' E 119°51'28518.6
2015-Apr-21 11:15N 22°16' E 114°44'1419.1
2015-Apr-21 10:33N 22°23' E 114°31'17 7.9
2015-Apr-21 08:20N 22°34' E 114°16'0 0.0
2015-Apr-21 05:20N 22°34' E 114°16'0 0.0
2015-Apr-21 01:20N 22°34' E 114°16'0 0.0
2015-Apr-21 00:15N 22°34' E 114°16'0 0.0
2015-Apr-20 23:20N 22°34' E 114°16'0 0.0
2015-Apr-20 22:26N 22°34' E 114°16'0 0.0
2015-Apr-20 21:26N 22°34' E 114°16'0 0.0
2015-Apr-20 20:32N 22°34' E 114°16'0 0.0
2015-Apr-20 19:26N 22°34' E 114°16'0 0.0
2015-Apr-20 15:20N 22°34' E 114°16'0 0.4
2015-Apr-20 14:31N 22°34' E 114°17'18 8.8
2015-Apr-20 12:31N 22°24' E 114°32'1 1.1
2015-Apr-20 11:33N 22°23' E 114°33'1 1.2
2015-Apr-20 10:29N 22°22' E 114°32'1 1.3
2015-Apr-20 09:33N 22°21' E 114°32'1 1.1
2015-Apr-20 08:32N 22°20' E 114°31'3 3.0
2015-Apr-20 07:31N 22°20' E 114°28'1212.3
2015-Apr-20 06:31N 22°09' E 114°22'1211.5
2015-Apr-20 05:30N 22°12' E 114°10'9 9.2
2015-Apr-20 04:33N 22°21' E 114°07'0 0.1
2015-Apr-20 02:12N 22°21' E 114°07'0 0.0
2015-Apr-20 01:30N 22°21' E 114°07'0 0.0
2015-Apr-20 00:27N 22°21' E 114°07'0 0.0
2015-Apr-19 23:24N 22°21' E 114°07'0 0.0
2015-Apr-19 22:18N 22°21' E 114°07'0 0.0
2015-Apr-19 20:30N 22°21' E 114°07'0 0.0
2015-Apr-19 19:12N 22°21' E 114°07'1 0.9
2015-Apr-19 18:34N 22°20' E 114°07'7 6.6
2015-Apr-19 17:26N 22°21' E 113°59'9 9.7
2015-Apr-19 16:33N 22°27' E 113°53'2 0.1
2015-Apr-18 17:05N 22°29' E 113°52'5 9.6
2015-Apr-18 16:33N 22°24' E 113°54'11 8.5
2015-Apr-18 15:18N 22°21' E 114°05'2 3.0
2015-Apr-18 14:33N 22°20' E 114°07'0 0.0
2015-Apr-18 13:32N 22°20' E 114°07'0 0.0
2015-Apr-18 12:32N 22°20' E 114°07'0 0.0
2015-Apr-18 11:32N 22°20' E 114°07'0 0.0
2015-Apr-18 10:32N 22°20' E 114°07'0 0.0
2015-Apr-18 09:32N 22°20' E 114°07'0 0.0
2015-Apr-18 08:32N 22°20' E 114°07'0 0.0
2015-Apr-18 07:32N 22°20' E 114°07'0 0.4
2015-Apr-18 06:33N 22°20' E 114°07'7 7.4
2015-Apr-18 05:33N 22°13' E 114°10'6 5.8
2015-Apr-18 04:33N 22°09' E 114°15'1110.5
2015-Apr-18 03:33N 22°10' E 114°26'1111.4
2015-Apr-18 02:33N 22°11' E 114°38'12012.6
2015-Apr-17 17:05N 22°43' E 116°43'713.4
2015-Apr-17 16:33N 22°48' E 116°48'1513.4
2015-Apr-17 15:24N 22°57' E 117°02'1113.0
2015-Apr-17 14:33N 23°04' E 117°11'2912.2
2015-Apr-17 12:11N 23°22' E 117°35'812.2
2015-Apr-17 11:33N 23°27' E 117°41'1211.8
2015-Apr-17 10:30N 23°37' E 117°50'1212.4
2015-Apr-17 09:30N 23°46' E 117°59'1112.0
2015-Apr-17 08:32N 23°54' E 118°08'1211.9
2015-Apr-17 07:33N 24°02' E 118°17'1110.6
2015-Apr-17 06:34N 24°13' E 118°16'1212.3
2015-Apr-17 05:33N 24°22' E 118°08'8 4.0
2015-Apr-17 03:33N 24°27' E 118°00'0 0.0
2015-Apr-17 01:21N 24°27' E 118°00'0 0.0
2015-Apr-16 23:33N 24°27' E 118°00'0 0.0
2015-Apr-16 22:09N 24°27' E 118°00'0 0.1
2015-Apr-16 21:15N 24°27' E 118°00'0 0.1
2015-Apr-16 20:27N 24°27' E 118°00'0 0.0
2015-Apr-16 17:09N 24°27' E 118°00'0 0.0
2015-Apr-16 15:09N 24°27' E 118°00'0 0.0
2015-Apr-16 14:27N 24°27' E 118°00'6 6.3
2015-Apr-16 13:33N 24°24' E 118°06'1914.0
2015-Apr-16 12:13N 24°12' E 118°21'0 0.2
2015-Apr-16 11:33N 24°12' E 118°21'1 0.9
2015-Apr-16 10:16N 24°12' E 118°22'0 0.0
2015-Apr-16 09:28N 24°13' E 118°22'0 0.1
2015-Apr-16 08:28N 24°12' E 118°22'0 0.0
2015-Apr-16 07:28N 24°12' E 118°22'0 0.1
2015-Apr-16 05:16N 24°12' E 118°21'0 0.0
2015-Apr-16 04:10N 24°12' E 118°21'0 0.1
2015-Apr-16 02:05N 24°12' E 118°22'0 0.0
2015-Apr-16 00:11N 24°13' E 118°22'0 0.0
2015-Apr-15 23:10N 24°12' E 118°22'0 0.1
2015-Apr-15 22:17N 24°12' E 118°22'0 0.0
2015-Apr-15 20:29N 24°12' E 118°22'0 0.0
2015-Apr-15 19:28N 24°12' E 118°22'0 0.0
2015-Apr-15 18:04N 24°12' E 118°22'0 0.0
2015-Apr-15 17:16N 24°12' E 118°22'0 0.1
2015-Apr-15 16:16N 24°12' E 118°22'  

Dump ship's entire track history